createdAt,value
2022-08-04T00:00:43.296Z,15.40
2022-08-04T00:03:20.586Z,16.83
2022-08-04T00:05:58.341Z,19.37
2022-08-04T00:08:36.080Z,17.97
2022-08-04T00:11:09.021Z,17.83
2022-08-04T00:13:52.722Z,18.70
2022-08-04T00:16:38.288Z,17.03
2022-08-04T00:19:12.936Z,17.60
2022-08-04T00:21:47.923Z,16.43
2022-08-04T00:24:18.557Z,21.80
2022-08-04T00:26:47.249Z,18.67
2022-08-04T00:29:16.167Z,20.53
2022-08-04T00:31:56.443Z,21.80
2022-08-04T00:34:27.208Z,18.23
2022-08-04T00:36:56.360Z,22.27
2022-08-04T00:39:26.970Z,19.80
2022-08-04T00:42:21.926Z,18.57
2022-08-04T00:45:19.047Z,20.20
2022-08-04T00:48:03.056Z,20.13
2022-08-04T00:50:41.028Z,17.67
2022-08-04T00:53:25.146Z,22.50
2022-08-04T00:56:23.301Z,24.33
2022-08-04T00:59:05.726Z,19.77
2022-08-04T01:02:02.518Z,20.13
2022-08-04T01:04:46.118Z,21.30
2022-08-04T01:07:28.940Z,18.40
2022-08-04T01:10:04.794Z,21.33
2022-08-04T01:12:59.094Z,19.20
2022-08-04T01:15:59.534Z,19.10
2022-08-04T01:18:34.200Z,18.50
2022-08-04T01:21:28.556Z,23.07
2022-08-04T01:24:24.283Z,20.63
2022-08-04T01:26:58.705Z,20.40
2022-08-04T01:29:43.800Z,19.60
2022-08-04T01:32:26.134Z,24.20
2022-08-04T01:34:59.050Z,21.70
2022-08-04T01:37:36.952Z,23.87
2022-08-04T01:40:07.442Z,18.60
2022-08-04T01:42:37.545Z,23.03
2022-08-04T01:45:09.275Z,23.77
2022-08-04T01:47:38.909Z,21.03
2022-08-04T01:50:09.670Z,19.93
2022-08-04T01:52:39.179Z,20.67
2022-08-04T01:55:10.403Z,24.20
2022-08-04T01:57:43.315Z,21.80
2022-08-04T02:00:15.372Z,23.50
2022-08-04T02:02:45.273Z,30.10
2022-08-04T02:05:16.933Z,24.57
2022-08-04T02:07:52.220Z,26.57
2022-08-04T02:10:29.173Z,24.70
2022-08-04T02:13:17.891Z,26.27
2022-08-04T02:15:57.843Z,23.17
2022-08-04T02:18:31.659Z,20.87
2022-08-04T02:21:02.287Z,20.53
2022-08-04T02:23:35.832Z,20.17
2022-08-04T02:26:06.130Z,22.30
2022-08-04T02:28:42.193Z,22.33
2022-08-04T02:31:20.105Z,21.60
2022-08-04T02:33:54.689Z,22.70
2022-08-04T02:36:28.935Z,22.80
2022-08-04T02:39:00.056Z,21.17
2022-08-04T02:41:30.256Z,26.53
2022-08-04T02:44:01.727Z,24.37
2022-08-04T02:46:32.889Z,24.53
2022-08-04T02:49:04.239Z,20.50
2022-08-04T02:51:35.552Z,20.43
2022-08-04T02:54:06.433Z,19.93
2022-08-04T02:56:37.475Z,21.63
2022-08-04T02:59:08.561Z,20.83
2022-08-04T03:01:38.450Z,24.97
2022-08-04T03:04:50.369Z,19.63
2022-08-04T03:07:47.972Z,23.20
2022-08-04T03:10:54.946Z,28.60
2022-08-04T03:13:58.454Z,21.00
2022-08-04T03:17:11.248Z,26.80
2022-08-04T03:20:17.837Z,23.00
2022-08-04T03:23:23.696Z,22.47
2022-08-04T03:26:25.440Z,26.83
2022-08-04T03:29:37.502Z,27.13
2022-08-04T03:32:30.922Z,28.90
2022-08-04T03:35:13.588Z,32.43
2022-08-04T03:38:13.447Z,21.10
2022-08-04T03:41:05.858Z,20.60
2022-08-04T03:44:12.061Z,21.20
2022-08-04T03:46:55.898Z,18.43
2022-08-04T03:49:55.418Z,18.23
2022-08-04T03:53:10.474Z,17.77
2022-08-04T03:56:00.677Z,15.20
2022-08-04T03:59:01.715Z,15.90
2022-08-04T04:02:02.361Z,18.37
2022-08-04T04:05:05.764Z,18.33
2022-08-04T04:08:19.952Z,15.33
2022-08-04T04:11:24.453Z,14.50
2022-08-04T04:14:42.009Z,16.13
2022-08-04T04:17:29.660Z,18.23
2022-08-04T04:20:34.807Z,16.30
2022-08-04T04:23:16.621Z,17.90
2022-08-04T04:26:01.235Z,16.37
2022-08-04T04:28:47.155Z,16.13
2022-08-04T04:31:38.266Z,16.90
2022-08-04T04:34:17.409Z,15.10
2022-08-04T04:36:58.304Z,15.67
2022-08-04T04:39:33.736Z,16.87
2022-08-04T04:42:18.109Z,16.90
2022-08-04T04:45:07.054Z,16.50
2022-08-04T04:48:07.212Z,15.10
2022-08-04T04:50:51.475Z,15.60
2022-08-04T04:53:29.089Z,17.03
2022-08-04T04:56:06.724Z,16.10
2022-08-04T04:58:37.016Z,14.57
2022-08-04T05:01:31.458Z,12.20
2022-08-04T05:04:17.493Z,10.93
2022-08-04T05:07:03.846Z,14.43
2022-08-04T05:09:46.957Z,13.30
2022-08-04T05:12:59.269Z,12.63
2022-08-04T05:15:18.564Z,12.47
2022-08-04T05:17:53.330Z,19.90
2022-08-04T05:20:25.109Z,12.57
2022-08-04T05:22:58.065Z,10.13
2022-08-04T05:25:35.724Z,11.27
2022-08-04T05:28:07.596Z,11.03
2022-08-04T05:30:48.259Z,9.07
2022-08-04T05:33:20.180Z,19.27
2022-08-04T05:36:21.812Z,13.70
2022-08-04T05:38:43.778Z,11.87
2022-08-04T05:41:15.258Z,11.57
2022-08-04T05:43:45.532Z,10.60
2022-08-04T05:46:14.632Z,13.27
2022-08-04T05:48:43.853Z,8.40
2022-08-04T05:51:12.917Z,12.70
2022-08-04T05:53:44.399Z,14.67
2022-08-04T05:56:16.043Z,11.00
2022-08-04T05:58:47.507Z,8.77
2022-08-04T06:01:18.262Z,12.90
2022-08-04T06:03:47.343Z,8.57
2022-08-04T06:06:18.594Z,9.53
2022-08-04T06:08:46.772Z,15.67
2022-08-04T06:11:17.573Z,10.20
2022-08-04T06:13:52.279Z,11.60
2022-08-04T06:16:29.703Z,9.07
2022-08-04T06:20:00.625Z,10.47
2022-08-04T06:21:53.399Z,11.97
2022-08-04T06:24:25.942Z,7.83
2022-08-04T06:26:56.844Z,11.43
2022-08-04T06:29:32.048Z,7.17
2022-08-04T06:32:29.490Z,11.33
2022-08-04T06:35:02.612Z,8.87
2022-08-04T06:37:42.147Z,8.50
2022-08-04T06:40:30.584Z,9.23
2022-08-04T06:43:03.773Z,8.40
2022-08-04T06:45:34.619Z,9.27
2022-08-04T06:48:03.860Z,10.23
2022-08-04T06:51:30.389Z,7.17
2022-08-04T06:53:21.375Z,6.93
2022-08-04T06:55:50.532Z,9.87
2022-08-04T06:58:22.054Z,8.80
2022-08-04T07:00:51.873Z,8.87
2022-08-04T07:03:21.697Z,8.83
2022-08-04T07:05:50.720Z,19.07
2022-08-04T07:08:20.262Z,17.47
2022-08-04T07:10:48.908Z,11.63
2022-08-04T07:13:19.526Z,14.37
2022-08-04T07:15:49.653Z,12.17
2022-08-04T07:18:17.941Z,16.87
2022-08-04T07:20:47.745Z,8.23
2022-08-04T07:23:20.005Z,13.33
2022-08-04T07:26:12.329Z,11.00
2022-08-04T07:28:43.123Z,9.57
2022-08-04T07:31:33.831Z,9.97
2022-08-04T07:34:16.901Z,12.30
2022-08-04T07:36:53.281Z,9.13
2022-08-04T07:39:28.114Z,7.73
2022-08-04T07:42:01.497Z,7.87
2022-08-04T07:44:32.934Z,11.10
2022-08-04T07:47:02.509Z,9.60
2022-08-04T07:49:57.114Z,7.57
2022-08-04T07:52:19.718Z,8.17
2022-08-04T07:54:49.265Z,9.40
2022-08-04T07:57:19.548Z,12.33
2022-08-04T08:00:10.268Z,10.63
2022-08-04T08:02:42.131Z,7.60
2022-08-04T08:05:14.679Z,7.40
2022-08-04T08:07:50.738Z,7.73
2022-08-04T08:10:23.218Z,7.70
2022-08-04T08:12:52.544Z,6.40
2022-08-04T08:15:22.738Z,11.33
2022-08-04T08:17:59.358Z,4.83
2022-08-04T08:20:32.507Z,5.93
2022-08-04T08:23:02.895Z,6.90
2022-08-04T08:25:32.538Z,4.70
2022-08-04T08:28:03.392Z,7.80
2022-08-04T08:30:33.740Z,11.47
2022-08-04T08:33:06.220Z,7.33
2022-08-04T08:35:52.081Z,5.43
2022-08-04T08:38:33.091Z,9.50
2022-08-04T08:41:22.121Z,5.77
2022-08-04T08:44:19.162Z,3.73
2022-08-04T08:47:10.762Z,5.07
2022-08-04T08:50:03.984Z,6.10
2022-08-04T08:53:01.671Z,4.67
2022-08-04T08:55:53.764Z,13.17
2022-08-04T08:58:36.815Z,6.20
2022-08-04T09:01:13.410Z,4.53
2022-08-04T09:04:28.832Z,4.23
2022-08-04T09:07:22.973Z,5.93
2022-08-04T09:10:03.612Z,5.77
2022-08-04T09:12:42.061Z,6.00
2022-08-04T09:15:16.078Z,8.23
2022-08-04T09:17:49.918Z,5.70
2022-08-04T09:20:26.651Z,6.97
2022-08-04T09:23:09.822Z,7.07
2022-08-04T09:25:44.135Z,6.17
2022-08-04T09:28:43.599Z,8.17
2022-08-04T09:31:14.267Z,7.83
2022-08-04T09:33:50.525Z,6.60
2022-08-04T09:36:31.466Z,7.73
2022-08-04T09:39:09.601Z,5.03
2022-08-04T09:41:49.615Z,4.43
2022-08-04T09:44:49.905Z,5.93
2022-08-04T09:47:23.086Z,4.57
2022-08-04T09:49:59.125Z,5.50
2022-08-04T09:52:39.387Z,6.77
2022-08-04T09:55:17.303Z,6.00
2022-08-04T09:58:06.580Z,6.03
2022-08-04T10:00:41.657Z,4.37
2022-08-04T10:03:17.448Z,4.97
2022-08-04T10:05:59.967Z,5.37
2022-08-04T10:08:45.218Z,4.40
2022-08-04T10:11:18.052Z,5.10
2022-08-04T10:13:54.520Z,4.77
2022-08-04T10:16:39.070Z,4.43
2022-08-04T10:19:21.369Z,4.97
2022-08-04T10:22:27.289Z,5.23
2022-08-04T10:26:02.666Z,5.47
2022-08-04T10:27:59.329Z,4.70
2022-08-04T10:30:31.836Z,4.13
2022-08-04T10:33:05.413Z,4.30
2022-08-04T10:35:38.730Z,4.77
2022-08-04T10:38:17.231Z,4.40
2022-08-04T10:40:49.426Z,6.20
2022-08-04T10:43:26.703Z,4.80
2022-08-04T10:45:59.729Z,4.00
2022-08-04T10:48:42.735Z,4.97
2022-08-04T10:51:24.945Z,4.23
2022-08-04T10:53:59.457Z,9.00
2022-08-04T10:56:36.021Z,4.67
2022-08-04T10:59:10.225Z,8.30
2022-08-04T11:02:00.688Z,8.53
2022-08-04T11:04:37.492Z,3.73
2022-08-04T11:07:06.511Z,4.07
2022-08-04T11:09:35.975Z,7.27
2022-08-04T11:12:11.375Z,3.97
2022-08-04T11:14:47.898Z,4.90
2022-08-04T11:17:27.361Z,6.60
2022-08-04T11:20:32.254Z,4.77
2022-08-04T11:23:05.376Z,3.43
2022-08-04T11:25:42.768Z,4.63
2022-08-04T11:28:19.830Z,5.70
2022-08-04T11:30:55.029Z,4.03
2022-08-04T11:33:37.440Z,3.40
2022-08-04T11:36:15.582Z,7.40
2022-08-04T11:38:52.307Z,3.90
2022-08-04T11:41:24.975Z,4.50
2022-08-04T11:44:01.841Z,3.27
2022-08-04T11:46:40.579Z,5.97
2022-08-04T11:49:12.990Z,4.93
2022-08-04T11:51:43.780Z,7.90
2022-08-04T11:54:13.427Z,3.70
2022-08-04T11:56:41.935Z,4.30
2022-08-04T11:59:11.388Z,3.80
2022-08-04T12:01:51.971Z,3.40
2022-08-04T12:04:27.037Z,4.33
2022-08-04T12:07:21.661Z,4.43
2022-08-04T12:09:57.344Z,3.80
2022-08-04T12:12:33.866Z,3.43
2022-08-04T12:15:15.391Z,4.80
2022-08-04T12:17:53.086Z,6.20
2022-08-04T12:20:31.784Z,3.60
2022-08-04T12:23:15.281Z,6.40
2022-08-04T12:25:48.851Z,3.77
2022-08-04T12:28:25.856Z,4.20
2022-08-04T12:31:05.133Z,4.03
2022-08-04T12:34:04.150Z,5.00
2022-08-04T12:36:36.800Z,3.40
2022-08-04T12:39:11.420Z,4.13
2022-08-04T12:41:43.333Z,5.60
2022-08-04T12:44:36.914Z,3.77
2022-08-04T12:47:27.260Z,3.53
2022-08-04T12:50:00.729Z,2.80
2022-08-04T12:52:59.293Z,2.87
2022-08-04T12:55:23.834Z,3.13
2022-08-04T12:57:53.648Z,9.00
2022-08-04T13:00:31.218Z,3.60
2022-08-04T13:03:09.598Z,5.40
2022-08-04T13:05:40.798Z,2.73
2022-08-04T13:08:11.302Z,3.30
2022-08-04T13:10:42.442Z,8.10
2022-08-04T13:13:18.028Z,3.60
2022-08-04T13:16:00.224Z,6.33
2022-08-04T13:18:32.363Z,5.57
2022-08-04T13:22:19.686Z,5.43
2022-08-04T13:26:42.583Z,6.07
2022-08-04T13:29:16.485Z,8.87
2022-08-04T13:40:31.205Z,6.00
2022-08-04T13:47:39.355Z,9.07
2022-08-04T13:50:24.223Z,8.03
2022-08-04T13:53:12.463Z,9.53
2022-08-04T13:55:44.106Z,7.93
2022-08-04T13:58:25.823Z,7.67
2022-08-04T14:01:01.424Z,6.43
2022-08-04T14:12:10.950Z,7.57
2022-08-04T14:14:32.443Z,5.80
2022-08-04T14:17:05.572Z,11.30
2022-08-04T14:19:55.631Z,13.90
2022-08-04T14:22:36.878Z,10.57
2022-08-04T14:25:15.640Z,8.57
2022-08-04T14:27:48.209Z,8.30
2022-08-04T14:30:27.926Z,5.53
2022-08-04T14:32:58.027Z,8.33
2022-08-04T14:35:30.811Z,5.63
2022-08-04T14:38:14.688Z,6.00
2022-08-04T14:40:45.011Z,5.10
2022-08-04T14:43:19.053Z,5.20
2022-08-04T14:45:53.872Z,5.57
2022-08-04T14:48:23.920Z,5.83
2022-08-04T14:50:53.233Z,5.20
2022-08-04T14:53:29.317Z,4.70
2022-08-04T14:55:59.649Z,4.83
2022-08-04T14:58:36.761Z,4.80
2022-08-04T15:01:10.630Z,5.13
2022-08-04T15:03:48.285Z,6.73
2022-08-04T15:06:22.195Z,4.93
2022-08-04T15:08:51.982Z,5.57
2022-08-04T15:11:23.700Z,7.03
2022-08-04T15:13:54.350Z,6.13
2022-08-04T15:16:23.483Z,7.53
2022-08-04T15:18:52.781Z,6.13
2022-08-04T15:21:23.756Z,5.63
2022-08-04T15:23:52.692Z,5.90
2022-08-04T15:26:28.777Z,7.63
2022-08-04T15:29:06.178Z,7.83
2022-08-04T15:32:04.656Z,6.53
2022-08-04T15:34:29.579Z,8.53
2022-08-04T15:37:01.715Z,7.37
2022-08-04T15:39:37.092Z,7.50
2022-08-04T15:42:21.273Z,6.63
2022-08-04T15:45:20.632Z,8.17
2022-08-04T15:48:32.679Z,9.83
2022-08-04T15:51:14.641Z,6.90
2022-08-04T15:54:23.403Z,7.93
2022-08-04T15:57:01.122Z,6.60
2022-08-04T15:59:59.924Z,7.67
2022-08-04T16:02:47.275Z,9.47
2022-08-04T16:05:36.793Z,11.47
2022-08-04T16:08:17.615Z,8.63
2022-08-04T16:10:48.066Z,6.57
2022-08-04T16:13:19.488Z,6.73
2022-08-04T16:15:51.194Z,5.90
2022-08-04T16:18:39.570Z,6.67
2022-08-04T16:21:19.999Z,6.60
2022-08-04T16:24:09.644Z,8.47
2022-08-04T16:26:54.256Z,7.23
2022-08-04T16:29:42.379Z,8.23
2022-08-04T16:32:25.823Z,6.47
2022-08-04T16:34:59.803Z,6.27
2022-08-04T16:37:34.362Z,8.80
2022-08-04T16:40:34.547Z,6.27
2022-08-04T16:43:07.383Z,5.70
2022-08-04T16:45:51.258Z,5.53
2022-08-04T16:48:20.403Z,4.27
2022-08-04T16:51:03.182Z,5.57
2022-08-04T16:53:53.965Z,4.60
2022-08-04T16:56:32.988Z,4.23
2022-08-04T16:59:07.455Z,6.70
2022-08-04T17:01:36.039Z,5.70
2022-08-04T17:04:08.337Z,5.37
2022-08-04T17:06:40.759Z,3.97
2022-08-04T17:09:13.747Z,6.03
2022-08-04T17:11:42.758Z,4.20
2022-08-04T17:14:11.740Z,4.50
2022-08-04T17:16:41.509Z,6.20
2022-08-04T17:19:25.066Z,6.47
2022-08-04T17:22:04.066Z,4.30
2022-08-04T17:24:35.194Z,4.90
2022-08-04T17:28:19.792Z,3.30
2022-08-04T17:29:52.433Z,3.77
2022-08-04T17:32:23.496Z,5.13
2022-08-04T17:34:53.887Z,4.60
2022-08-04T17:37:52.904Z,5.07
2022-08-04T17:40:22.425Z,2.73
2022-08-04T17:43:03.234Z,3.53
2022-08-04T17:46:15.641Z,4.53
2022-08-04T17:49:05.996Z,4.77
2022-08-04T17:52:05.143Z,3.43
2022-08-04T17:54:37.260Z,4.00
2022-08-04T17:57:15.586Z,3.50
2022-08-04T18:02:41.622Z,4.77
2022-08-04T18:05:12.326Z,4.80
2022-08-04T18:08:38.803Z,4.37
2022-08-04T18:10:51.583Z,3.30
2022-08-04T18:13:28.067Z,4.30
2022-08-04T18:16:03.546Z,4.13
2022-08-04T18:18:31.921Z,7.00
2022-08-04T18:21:02.804Z,5.97
2022-08-04T18:23:33.294Z,7.57
2022-08-04T18:26:03.852Z,5.17
2022-08-04T18:28:33.217Z,10.03
2022-08-04T18:31:02.766Z,5.40
2022-08-04T18:36:33.611Z,9.27
2022-08-04T18:39:12.799Z,7.03
2022-08-04T18:42:02.269Z,6.20
2022-08-04T18:44:32.555Z,6.50
2022-08-04T18:47:22.093Z,7.50
2022-08-04T18:52:45.051Z,10.60
2022-08-04T18:55:55.690Z,11.80
2022-08-04T18:58:07.299Z,12.47
2022-08-04T19:00:45.653Z,10.83
2022-08-04T19:03:16.309Z,14.80
2022-08-04T19:05:44.879Z,15.30
2022-08-04T19:08:33.396Z,15.97
2022-08-04T19:11:35.325Z,16.00
2022-08-04T19:13:58.151Z,11.00
2022-08-04T19:16:28.498Z,14.87
2022-08-04T19:18:57.262Z,17.37
2022-08-04T19:22:00.684Z,15.17
2022-08-04T19:24:32.433Z,11.10
2022-08-04T19:27:07.538Z,15.53
2022-08-04T19:29:40.673Z,13.97
2022-08-04T19:32:13.787Z,14.43
2022-08-04T19:34:46.007Z,11.93
2022-08-04T19:37:56.855Z,14.30
2022-08-04T19:40:05.382Z,14.50
2022-08-04T19:42:34.638Z,12.30
2022-08-04T19:45:04.448Z,13.47
2022-08-04T19:48:11.536Z,12.67
2022-08-04T19:50:23.642Z,12.63
2022-08-04T19:52:53.011Z,17.10
2022-08-04T19:55:22.941Z,13.70
2022-08-04T19:58:07.556Z,11.43
2022-08-04T20:00:39.234Z,13.20
2022-08-04T20:03:11.378Z,14.47
2022-08-04T20:08:29.065Z,16.50
2022-08-04T20:10:58.240Z,14.77
2022-08-04T20:13:36.934Z,16.80
2022-08-04T20:16:28.378Z,17.43
2022-08-04T20:19:01.009Z,16.93
2022-08-04T20:21:36.598Z,18.70
2022-08-04T20:24:38.799Z,14.20
2022-08-04T20:27:11.695Z,18.10
2022-08-04T20:29:47.435Z,12.80
2022-08-04T20:32:20.186Z,16.23
2022-08-04T20:34:51.416Z,15.30
2022-08-04T20:37:22.822Z,16.00
2022-08-04T20:39:55.374Z,17.17
2022-08-04T20:42:27.129Z,14.30
2022-08-04T20:45:02.304Z,15.37
2022-08-04T20:47:35.212Z,14.63
2022-08-04T20:50:05.329Z,15.33
2022-08-04T20:52:37.819Z,12.50
2022-08-04T20:55:07.738Z,12.90
2022-08-04T20:57:47.707Z,12.57
2022-08-04T21:00:17.580Z,12.80
2022-08-04T21:02:56.160Z,12.00
2022-08-04T21:05:26.425Z,11.47
2022-08-04T21:07:56.739Z,13.20
2022-08-04T21:10:25.784Z,12.60
2022-08-04T21:12:54.511Z,13.17
2022-08-04T21:15:25.489Z,10.03
2022-08-04T21:17:59.415Z,13.43
2022-08-04T21:20:34.524Z,13.40
2022-08-04T21:23:05.071Z,11.13
2022-08-04T21:28:23.531Z,13.53
2022-08-04T21:30:54.943Z,16.07
2022-08-04T21:33:43.957Z,12.37
2022-08-04T21:36:16.119Z,13.47
2022-08-04T21:38:52.070Z,11.17
2022-08-04T21:41:25.014Z,12.07
2022-08-04T21:43:56.328Z,11.93
2022-08-04T21:46:26.996Z,12.27
2022-08-04T21:48:59.694Z,14.50
2022-08-04T21:51:58.432Z,14.60
2022-08-04T21:54:17.886Z,14.40
2022-08-04T21:56:50.687Z,14.40
2022-08-04T21:59:23.507Z,14.13
2022-08-04T22:01:56.758Z,12.93
2022-08-04T22:04:26.298Z,12.17
2022-08-04T22:06:54.383Z,11.60
2022-08-04T22:09:22.502Z,13.07
2022-08-04T22:11:51.963Z,12.13
2022-08-04T22:14:29.551Z,11.73
2022-08-04T22:17:04.248Z,12.60
2022-08-04T22:19:50.383Z,10.97
2022-08-04T22:22:24.999Z,10.97
2022-08-04T22:24:58.340Z,13.53
2022-08-04T22:27:44.440Z,13.63
2022-08-04T22:30:17.643Z,12.03
2022-08-04T22:32:47.020Z,13.00
2022-08-04T22:35:35.921Z,11.07
2022-08-04T22:38:26.763Z,10.03
2022-08-04T22:40:58.686Z,12.17
2022-08-04T22:43:32.204Z,9.70
2022-08-04T22:46:03.944Z,10.83
2022-08-04T22:48:32.601Z,13.67
2022-08-04T22:51:02.680Z,11.40
2022-08-04T22:53:31.096Z,9.83
2022-08-04T22:56:10.033Z,10.90
2022-08-04T22:58:45.562Z,9.70
2022-08-04T23:01:19.727Z,12.47
2022-08-04T23:03:56.113Z,13.60
2022-08-04T23:06:28.737Z,10.03
2022-08-04T23:08:59.308Z,12.47
2022-08-04T23:11:34.480Z,11.57
2022-08-04T23:14:03.142Z,11.83
2022-08-04T23:16:32.699Z,9.97
2022-08-04T23:19:09.890Z,15.40
2022-08-04T23:21:47.631Z,9.80
2022-08-04T23:24:19.434Z,8.57
2022-08-04T23:26:48.116Z,8.30
2022-08-04T23:29:16.208Z,10.60
2022-08-04T23:31:59.531Z,7.53
2022-08-04T23:34:29.301Z,9.93
2022-08-04T23:36:59.443Z,8.97
2022-08-04T23:40:03.314Z,13.80
2022-08-04T23:42:21.160Z,10.43
2022-08-04T23:44:49.902Z,7.87
2022-08-04T23:48:14.733Z,7.70
2022-08-04T23:50:07.679Z,8.40
2022-08-04T23:52:37.092Z,7.80
2022-08-04T23:55:07.647Z,6.73
2022-08-04T23:58:06.066Z,9.53
